sensor_id;sensor_type;location;lat;lon;timestamp;pressure;altitude;pressure_sealevel;temperature;humidity
61035;BME280;46916;40.564;-7.958;2023-01-29T00:01:14;98063.22;;;5.62;59.52
61035;BME280;46916;40.564;-7.958;2023-01-29T00:03:15;98073.44;;;5.65;59.32
61035;BME280;46916;40.564;-7.958;2023-01-29T00:05:16;98080.50;;;5.63;58.74
61035;BME280;46916;40.564;-7.958;2023-01-29T00:07:16;98077.56;;;5.69;58.36
61035;BME280;46916;40.564;-7.958;2023-01-29T00:09:18;98083.44;;;5.73;57.78
61035;BME280;46916;40.564;-7.958;2023-01-29T00:11:18;98082.16;;;5.64;57.76
61035;BME280;46916;40.564;-7.958;2023-01-29T00:13:19;98078.81;;;5.62;57.54
61035;BME280;46916;40.564;-7.958;2023-01-29T00:15:20;98062.78;;;5.54;57.87
61035;BME280;46916;40.564;-7.958;2023-01-29T00:17:21;98061.69;;;5.58;57.64
61035;BME280;46916;40.564;-7.958;2023-01-29T00:19:21;98075.19;;;5.49;57.78
61035;BME280;46916;40.564;-7.958;2023-01-29T00:21:23;98083.91;;;5.48;58.08
61035;BME280;46916;40.564;-7.958;2023-01-29T00:23:25;98088.03;;;5.52;57.94
61035;BME280;46916;40.564;-7.958;2023-01-29T00:25:25;98082.72;;;5.54;57.25
61035;BME280;46916;40.564;-7.958;2023-01-29T00:27:26;98083.50;;;5.56;56.77
61035;BME280;46916;40.564;-7.958;2023-01-29T00:29:27;98078.47;;;5.53;56.88
61035;BME280;46916;40.564;-7.958;2023-01-29T00:31:28;98073.94;;;5.56;57.06
61035;BME280;46916;40.564;-7.958;2023-01-29T00:33:28;98076.28;;;5.61;56.68
61035;BME280;46916;40.564;-7.958;2023-01-29T00:35:29;98074.44;;;5.63;56.45
61035;BME280;46916;40.564;-7.958;2023-01-29T00:37:31;98075.38;;;5.62;55.38
61035;BME280;46916;40.564;-7.958;2023-01-29T00:39:31;98078.06;;;5.60;55.52
61035;BME280;46916;40.564;-7.958;2023-01-29T00:41:38;98065.31;;;5.56;55.71
61035;BME280;46916;40.564;-7.958;2023-01-29T00:43:57;98063.13;;;5.48;55.95
61035;BME280;46916;40.564;-7.958;2023-01-29T00:46:17;98073.19;;;5.54;55.81
61035;BME280;46916;40.564;-7.958;2023-01-29T00:48:18;98071.66;;;5.50;56.17
61035;BME280;46916;40.564;-7.958;2023-01-29T00:50:19;98064.13;;;5.45;55.85
61035;BME280;46916;40.564;-7.958;2023-01-29T00:52:20;98081.22;;;5.50;55.96
61035;BME280;46916;40.564;-7.958;2023-01-29T00:54:23;98072.84;;;5.44;56.04
61035;BME280;46916;40.564;-7.958;2023-01-29T00:56:24;98068.31;;;5.48;56.25
61035;BME280;46916;40.564;-7.958;2023-01-29T00:58:25;98064.47;;;5.39;56.14
61035;BME280;46916;40.564;-7.958;2023-01-29T01:00:33;98068.06;;;5.37;56.65
61035;BME280;46916;40.564;-7.958;2023-01-29T01:02:34;98066.53;;;5.33;57.20
61035;BME280;46916;40.564;-7.958;2023-01-29T01:04:56;98065.88;;;5.29;56.48
61035;BME280;46916;40.564;-7.958;2023-01-29T01:06:57;98062.69;;;5.24;56.70
61035;BME280;46916;40.564;-7.958;2023-01-29T01:08:58;98058.72;;;5.17;56.67
61035;BME280;46916;40.564;-7.958;2023-01-29T01:11:18;98057.78;;;5.18;57.46
61035;BME280;46916;40.564;-7.958;2023-01-29T01:13:18;98065.44;;;5.21;56.24
61035;BME280;46916;40.564;-7.958;2023-01-29T01:15:21;98056.06;;;5.18;56.57
61035;BME280;46916;40.564;-7.958;2023-01-29T01:17:22;98051.09;;;5.14;55.56
61035;BME280;46916;40.564;-7.958;2023-01-29T01:19:23;98055.63;;;5.10;56.33
61035;BME280;46916;40.564;-7.958;2023-01-29T01:21:24;98047.84;;;5.10;56.69
61035;BME280;46916;40.564;-7.958;2023-01-29T01:23:24;98044.81;;;5.02;56.73
61035;BME280;46916;40.564;-7.958;2023-01-29T01:25:26;98042.78;;;5.07;56.18
61035;BME280;46916;40.564;-7.958;2023-01-29T01:27:28;98040.44;;;5.03;56.60
61035;BME280;46916;40.564;-7.958;2023-01-29T01:29:29;98040.59;;;5.00;56.48
61035;BME280;46916;40.564;-7.958;2023-01-29T01:31:30;98040.34;;;5.04;56.04
61035;BME280;46916;40.564;-7.958;2023-01-29T01:33:30;98048.25;;;5.03;55.99
61035;BME280;46916;40.564;-7.958;2023-01-29T01:35:31;98036.25;;;5.00;56.22
61035;BME280;46916;40.564;-7.958;2023-01-29T01:37:32;98053.19;;;5.07;56.10
61035;BME280;46916;40.564;-7.958;2023-01-29T01:39:33;98042.66;;;5.10;55.65
61035;BME280;46916;40.564;-7.958;2023-01-29T01:41:33;98045.31;;;5.09;55.76
61035;BME280;46916;40.564;-7.958;2023-01-29T01:43:58;98043.53;;;5.09;55.15
61035;BME280;46916;40.564;-7.958;2023-01-29T01:46:02;98033.94;;;5.11;55.08
61035;BME280;46916;40.564;-7.958;2023-01-29T01:48:21;98048.16;;;5.04;55.09
61035;BME280;46916;40.564;-7.958;2023-01-29T01:50:30;98036.16;;;5.02;55.99
61035;BME280;46916;40.564;-7.958;2023-01-29T01:52:36;98040.50;;;5.01;55.96
61035;BME280;46916;40.564;-7.958;2023-01-29T01:54:38;98043.63;;;5.08;55.18
61035;BME280;46916;40.564;-7.958;2023-01-29T01:56:44;98045.16;;;5.12;55.71
61035;BME280;46916;40.564;-7.958;2023-01-29T01:58:49;98047.22;;;5.05;56.06
61035;BME280;46916;40.564;-7.958;2023-01-29T02:00:51;98058.53;;;5.04;56.22
61035;BME280;46916;40.564;-7.958;2023-01-29T02:02:53;98056.72;;;5.06;55.27
61035;BME280;46916;40.564;-7.958;2023-01-29T02:05:15;98052.34;;;5.07;55.72
61035;BME280;46916;40.564;-7.958;2023-01-29T02:07:35;98058.38;;;5.07;55.78
61035;BME280;46916;40.564;-7.958;2023-01-29T02:10:05;98048.47;;;4.98;56.15
61035;BME280;46916;40.564;-7.958;2023-01-29T02:12:11;98057.78;;;5.02;55.63
61035;BME280;46916;40.564;-7.958;2023-01-29T02:14:12;98045.25;;;4.93;56.29
61035;BME280;46916;40.564;-7.958;2023-01-29T02:16:13;98043.28;;;4.98;56.31
61035;BME280;46916;40.564;-7.958;2023-01-29T02:18:15;98041.84;;;4.92;56.40
61035;BME280;46916;40.564;-7.958;2023-01-29T02:20:26;98044.28;;;4.95;56.18
61035;BME280;46916;40.564;-7.958;2023-01-29T02:31:45;98062.09;;;4.86;57.04
61035;BME280;46916;40.564;-7.958;2023-01-29T02:34:12;98068.28;;;4.83;56.99
61035;BME280;46916;40.564;-7.958;2023-01-29T02:38:49;98080.47;;;4.81;56.54
61035;BME280;46916;40.564;-7.958;2023-01-29T02:44:02;98069.34;;;4.79;56.49
61035;BME280;46916;40.564;-7.958;2023-01-29T02:45:52;98072.63;;;4.83;56.49
61035;BME280;46916;40.564;-7.958;2023-01-29T02:47:58;98059.06;;;4.78;57.30
61035;BME280;46916;40.564;-7.958;2023-01-29T02:50:22;98059.66;;;4.83;56.28
61035;BME280;46916;40.564;-7.958;2023-01-29T02:52:35;98043.38;;;4.79;56.59
61035;BME280;46916;40.564;-7.958;2023-01-29T02:57:23;98035.84;;;4.75;57.20
61035;BME280;46916;40.564;-7.958;2023-01-29T02:59:37;98038.44;;;4.75;57.21
61035;BME280;46916;40.564;-7.958;2023-01-29T03:01:51;98044.47;;;4.75;56.95
61035;BME280;46916;40.564;-7.958;2023-01-29T03:03:55;98046.53;;;4.68;57.28
61035;BME280;46916;40.564;-7.958;2023-01-29T03:06:07;98030.94;;;4.68;57.59
61035;BME280;46916;40.564;-7.958;2023-01-29T03:08:22;98028.44;;;4.67;57.03
61035;BME280;46916;40.564;-7.958;2023-01-29T03:10:39;98032.41;;;4.57;58.29
61035;BME280;46916;40.564;-7.958;2023-01-29T03:12:43;98034.03;;;4.59;57.79
61035;BME280;46916;40.564;-7.958;2023-01-29T03:14:48;98035.78;;;4.59;58.23
61035;BME280;46916;40.564;-7.958;2023-01-29T03:17:09;98030.59;;;4.59;58.17
61035;BME280;46916;40.564;-7.958;2023-01-29T03:19:24;98032.22;;;4.61;57.93
61035;BME280;46916;40.564;-7.958;2023-01-29T03:21:42;98032.28;;;4.60;58.02
61035;BME280;46916;40.564;-7.958;2023-01-29T03:23:56;98030.69;;;4.57;57.51
61035;BME280;46916;40.564;-7.958;2023-01-29T03:26:18;98024.56;;;4.58;58.01
61035;BME280;46916;40.564;-7.958;2023-01-29T03:28:41;98023.56;;;4.61;57.51
61035;BME280;46916;40.564;-7.958;2023-01-29T03:31:05;98034.03;;;4.59;58.05
61035;BME280;46916;40.564;-7.958;2023-01-29T03:33:31;98039.38;;;4.56;57.75
61035;BME280;46916;40.564;-7.958;2023-01-29T03:35:39;98043.13;;;4.51;57.98
61035;BME280;46916;40.564;-7.958;2023-01-29T03:37:45;98038.75;;;4.51;57.91
61035;BME280;46916;40.564;-7.958;2023-01-29T03:39:47;98029.47;;;4.47;58.90
61035;BME280;46916;40.564;-7.958;2023-01-29T03:42:12;98041.34;;;4.51;58.38
61035;BME280;46916;40.564;-7.958;2023-01-29T03:44:18;98038.00;;;4.49;58.74
61035;BME280;46916;40.564;-7.958;2023-01-29T03:46:37;98043.13;;;4.51;58.47
61035;BME280;46916;40.564;-7.958;2023-01-29T03:48:50;98044.78;;;4.52;58.38
61035;BME280;46916;40.564;-7.958;2023-01-29T03:56:19;98037.38;;;4.44;58.37
61035;BME280;46916;40.564;-7.958;2023-01-29T03:58:39;98032.38;;;4.41;58.80
61035;BME280;46916;40.564;-7.958;2023-01-29T04:00:55;98034.97;;;4.41;59.09
61035;BME280;46916;40.564;-7.958;2023-01-29T04:03:07;98042.81;;;4.39;59.22
61035;BME280;46916;40.564;-7.958;2023-01-29T04:05:16;98039.53;;;4.36;58.86
61035;BME280;46916;40.564;-7.958;2023-01-29T04:07:36;98039.53;;;4.36;59.18
61035;BME280;46916;40.564;-7.958;2023-01-29T04:09:47;98045.41;;;4.39;58.52
61035;BME280;46916;40.564;-7.958;2023-01-29T04:11:59;98039.38;;;4.39;59.52
61035;BME280;46916;40.564;-7.958;2023-01-29T04:14:03;98039.38;;;4.39;58.97
61035;BME280;46916;40.564;-7.958;2023-01-29T04:16:11;98035.13;;;4.38;59.16
61035;BME280;46916;40.564;-7.958;2023-01-29T04:18:38;98036.88;;;4.37;59.16
61035;BME280;46916;40.564;-7.958;2023-01-29T04:20:42;98047.38;;;4.34;59.37
61035;BME280;46916;40.564;-7.958;2023-01-29T04:22:46;98029.47;;;4.30;59.79
61035;BME280;46916;40.564;-7.958;2023-01-29T04:24:48;98036.47;;;4.28;59.27
61035;BME280;46916;40.564;-7.958;2023-01-29T04:31:22;98040.06;;;4.25;60.17
61035;BME280;46916;40.564;-7.958;2023-01-29T04:33:34;98038.56;;;4.21;60.34
61035;BME280;46916;40.564;-7.958;2023-01-29T04:40:42;98039.38;;;4.21;59.41
61035;BME280;46916;40.564;-7.958;2023-01-29T04:43:08;98030.44;;;4.27;59.56
61035;BME280;46916;40.564;-7.958;2023-01-29T04:48:15;98038.78;;;4.34;59.77
61035;BME280;46916;40.564;-7.958;2023-01-29T04:50:59;98034.19;;;4.39;59.31
61035;BME280;46916;40.564;-7.958;2023-01-29T04:53:24;98028.31;;;4.35;59.49
61035;BME280;46916;40.564;-7.958;2023-01-29T05:00:27;98032.06;;;4.30;59.49
61035;BME280;46916;40.564;-7.958;2023-01-29T05:02:32;98024.56;;;4.23;60.18
61035;BME280;46916;40.564;-7.958;2023-01-29T05:04:33;98034.50;;;4.33;60.14
61035;BME280;46916;40.564;-7.958;2023-01-29T05:06:35;98035.41;;;4.32;59.62
61035;BME280;46916;40.564;-7.958;2023-01-29T05:08:38;98041.22;;;4.37;59.35
61035;BME280;46916;40.564;-7.958;2023-01-29T05:10:40;98045.25;;;4.42;59.29
61035;BME280;46916;40.564;-7.958;2023-01-29T05:12:45;98037.16;;;4.31;60.02
61035;BME280;46916;40.564;-7.958;2023-01-29T05:14:48;98041.22;;;4.37;59.77
61035;BME280;46916;40.564;-7.958;2023-01-29T05:16:51;98040.69;;;4.30;60.00
61035;BME280;46916;40.564;-7.958;2023-01-29T05:18:53;98051.19;;;4.27;60.04
61035;BME280;46916;40.564;-7.958;2023-01-29T05:20:55;98039.25;;;4.25;60.49
61035;BME280;46916;40.564;-7.958;2023-01-29T05:22:57;98037.63;;;4.22;59.90
61035;BME280;46916;40.564;-7.958;2023-01-29T05:24:58;98054.09;;;4.21;59.70
61035;BME280;46916;40.564;-7.958;2023-01-29T05:26:58;98050.81;;;4.17;59.97
61035;BME280;46916;40.564;-7.958;2023-01-29T05:29:20;98041.66;;;4.10;60.17
61035;BME280;46916;40.564;-7.958;2023-01-29T05:31:20;98044.00;;;4.15;60.64
61035;BME280;46916;40.564;-7.958;2023-01-29T05:33:28;98046.69;;;4.13;60.67
61035;BME280;46916;40.564;-7.958;2023-01-29T05:35:31;98045.31;;;4.06;60.10
61035;BME280;46916;40.564;-7.958;2023-01-29T05:37:32;98041.97;;;4.04;61.09
61035;BME280;46916;40.564;-7.958;2023-01-29T05:39:33;98049.75;;;4.04;60.47
61035;BME280;46916;40.564;-7.958;2023-01-29T05:41:33;98045.69;;;3.98;60.73
61035;BME280;46916;40.564;-7.958;2023-01-29T05:43:34;98056.88;;;3.99;60.96
61035;BME280;46916;40.564;-7.958;2023-01-29T05:45:35;98050.03;;;3.98;61.12
61035;BME280;46916;40.564;-7.958;2023-01-29T05:47:35;98053.41;;;4.00;61.11
61035;BME280;46916;40.564;-7.958;2023-01-29T05:49:36;98051.88;;;3.96;60.92
61035;BME280;46916;40.564;-7.958;2023-01-29T05:51:37;98056.13;;;3.97;61.31
61035;BME280;46916;40.564;-7.958;2023-01-29T05:53:38;98055.53;;;3.92;61.12
61035;BME280;46916;40.564;-7.958;2023-01-29T05:55:39;98056.88;;;3.99;61.16
61035;BME280;46916;40.564;-7.958;2023-01-29T05:57:43;98044.69;;;4.01;60.88
61035;BME280;46916;40.564;-7.958;2023-01-29T05:59:43;98049.75;;;4.04;61.02
61035;BME280;46916;40.564;-7.958;2023-01-29T06:01:44;98046.28;;;4.04;60.80
61035;BME280;46916;40.564;-7.958;2023-01-29T06:03:45;98050.72;;;4.02;61.26
61035;BME280;46916;40.564;-7.958;2023-01-29T06:05:46;98050.63;;;4.03;61.17
61035;BME280;46916;40.564;-7.958;2023-01-29T06:07:47;98041.41;;;3.97;60.64
61035;BME280;46916;40.564;-7.958;2023-01-29T06:09:47;98046.38;;;4.02;61.27
61035;BME280;46916;40.564;-7.958;2023-01-29T06:11:48;98041.63;;;3.93;60.82
61035;BME280;46916;40.564;-7.958;2023-01-29T06:13:49;98044.00;;;3.97;61.69
61035;BME280;46916;40.564;-7.958;2023-01-29T06:15:50;98036.38;;;3.94;61.34
61035;BME280;46916;40.564;-7.958;2023-01-29T06:17:54;98044.09;;;3.96;61.58
61035;BME280;46916;40.564;-7.958;2023-01-29T06:19:54;98041.03;;;4.05;61.13
61035;BME280;46916;40.564;-7.958;2023-01-29T06:21:55;98053.22;;;4.03;60.51
61035;BME280;46916;40.564;-7.958;2023-01-29T06:23:59;98061.22;;;3.98;60.52
61035;BME280;46916;40.564;-7.958;2023-01-29T06:26:01;98062.22;;;3.96;60.67
61035;BME280;46916;40.564;-7.958;2023-01-29T06:28:02;98057.19;;;3.93;60.35
61035;BME280;46916;40.564;-7.958;2023-01-29T06:30:04;98072.03;;;3.89;61.52
61035;BME280;46916;40.564;-7.958;2023-01-29T06:32:05;98094.66;;;3.86;60.97
61035;BME280;46916;40.564;-7.958;2023-01-29T06:34:08;98079.25;;;3.83;61.60
61035;BME280;46916;40.564;-7.958;2023-01-29T06:36:08;98085.66;;;3.76;61.58
61035;BME280;46916;40.564;-7.958;2023-01-29T06:38:09;98091.59;;;3.78;61.53
61035;BME280;46916;40.564;-7.958;2023-01-29T06:40:10;98099.84;;;3.86;61.54
61035;BME280;46916;40.564;-7.958;2023-01-29T06:42:11;98093.91;;;3.84;61.34
61035;BME280;46916;40.564;-7.958;2023-01-29T06:44:12;98103.41;;;3.83;61.26
61035;BME280;46916;40.564;-7.958;2023-01-29T06:46:13;98105.03;;;3.86;61.43
61035;BME280;46916;40.564;-7.958;2023-01-29T06:48:14;98100.75;;;3.85;61.29
61035;BME280;46916;40.564;-7.958;2023-01-29T06:50:16;98103.50;;;3.82;61.13
61035;BME280;46916;40.564;-7.958;2023-01-29T06:52:17;98090.66;;;3.79;61.64
61035;BME280;46916;40.564;-7.958;2023-01-29T06:54:18;98104.28;;;3.84;61.38
61035;BME280;46916;40.564;-7.958;2023-01-29T06:56:19;98107.97;;;3.78;61.52
61035;BME280;46916;40.564;-7.958;2023-01-29T06:58:21;98121.63;;;3.82;61.64
61035;BME280;46916;40.564;-7.958;2023-01-29T07:00:21;98111.41;;;3.79;61.28
61035;BME280;46916;40.564;-7.958;2023-01-29T07:02:22;98114.81;;;3.79;61.60
61035;BME280;46916;40.564;-7.958;2023-01-29T07:04:23;98117.50;;;3.78;62.21
61035;BME280;46916;40.564;-7.958;2023-01-29T07:06:27;98119.13;;;3.80;61.60
61035;BME280;46916;40.564;-7.958;2023-01-29T07:08:28;98114.78;;;3.81;62.15
61035;BME280;46916;40.564;-7.958;2023-01-29T07:10:29;98111.47;;;3.77;62.04
61035;BME280;46916;40.564;-7.958;2023-01-29T07:12:30;98118.28;;;3.80;61.64
61035;BME280;46916;40.564;-7.958;2023-01-29T07:14:30;98116.66;;;3.77;62.18
61035;BME280;46916;40.564;-7.958;2023-01-29T07:16:31;98126.09;;;3.78;62.33
61035;BME280;46916;40.564;-7.958;2023-01-29T07:18:32;98118.41;;;3.77;62.59
61035;BME280;46916;40.564;-7.958;2023-01-29T07:20:34;98117.63;;;3.75;62.48
61035;BME280;46916;40.564;-7.958;2023-01-29T07:22:34;98124.44;;;3.77;62.88
61035;BME280;46916;40.564;-7.958;2023-01-29T07:24:35;98132.22;;;3.77;62.84
61035;BME280;46916;40.564;-7.958;2023-01-29T07:26:36;98129.53;;;3.79;62.23
61035;BME280;46916;40.564;-7.958;2023-01-29T07:28:37;98127.16;;;3.74;62.06
61035;BME280;46916;40.564;-7.958;2023-01-29T07:30:38;98134.09;;;3.73;62.43
61035;BME280;46916;40.564;-7.958;2023-01-29T07:32:41;98138.34;;;3.75;62.40
61035;BME280;46916;40.564;-7.958;2023-01-29T07:34:42;98134.09;;;3.73;62.78
61035;BME280;46916;40.564;-7.958;2023-01-29T07:36:43;98132.44;;;3.72;62.21
61035;BME280;46916;40.564;-7.958;2023-01-29T07:38:48;98127.66;;;3.63;62.48
61035;BME280;46916;40.564;-7.958;2023-01-29T07:40:53;98137.03;;;3.66;62.37
61035;BME280;46916;40.564;-7.958;2023-01-29T07:43:01;98135.94;;;3.71;61.67
61035;BME280;46916;40.564;-7.958;2023-01-29T07:45:07;98141.88;;;3.73;61.65
61035;BME280;46916;40.564;-7.958;2023-01-29T07:47:08;98137.66;;;3.71;62.03
61035;BME280;46916;40.564;-7.958;2023-01-29T07:49:11;98138.34;;;3.75;61.38
61035;BME280;46916;40.564;-7.958;2023-01-29T07:51:12;98138.22;;;3.78;61.28
61035;BME280;46916;40.564;-7.958;2023-01-29T07:53:13;98138.16;;;3.79;61.37
61035;BME280;46916;40.564;-7.958;2023-01-29T07:55:14;98135.00;;;3.72;61.32
61035;BME280;46916;40.564;-7.958;2023-01-29T07:57:15;98129.53;;;3.79;61.65
61035;BME280;46916;40.564;-7.958;2023-01-29T07:59:16;98132.63;;;3.87;61.13
61035;BME280;46916;40.564;-7.958;2023-01-29T08:01:17;98136.91;;;3.88;60.85
61035;BME280;46916;40.564;-7.958;2023-01-29T08:03:18;98133.31;;;4.09;60.38
61035;BME280;46916;40.564;-7.958;2023-01-29T08:05:20;98137.59;;;4.28;60.71
61035;BME280;46916;40.564;-7.958;2023-01-29T08:07:20;98128.94;;;4.46;59.72
61035;BME280;46916;40.564;-7.958;2023-01-29T08:09:21;98124.22;;;4.71;58.22
61035;BME280;46916;40.564;-7.958;2023-01-29T08:11:22;98141.78;;;4.84;58.39
61035;BME280;46916;40.564;-7.958;2023-01-29T08:13:23;98136.88;;;4.95;57.26
61035;BME280;46916;40.564;-7.958;2023-01-29T08:15:24;98139.94;;;5.03;57.71
61035;BME280;46916;40.564;-7.958;2023-01-29T08:17:24;98147.34;;;5.11;57.42
61035;BME280;46916;40.564;-7.958;2023-01-29T08:19:25;98141.28;;;5.28;56.80
61035;BME280;46916;40.564;-7.958;2023-01-29T08:21:28;98146.00;;;5.37;56.35
61035;BME280;46916;40.564;-7.958;2023-01-29T08:23:29;98144.41;;;5.50;56.14
61035;BME280;46916;40.564;-7.958;2023-01-29T08:25:31;98144.97;;;5.72;55.97
61035;BME280;46916;40.564;-7.958;2023-01-29T08:27:31;98149.66;;;5.82;55.67
61035;BME280;46916;40.564;-7.958;2023-01-29T08:29:32;98155.44;;;5.87;54.77
61035;BME280;46916;40.564;-7.958;2023-01-29T08:31:33;98152.69;;;5.90;54.30
61035;BME280;46916;40.564;-7.958;2023-01-29T08:33:34;98158.19;;;6.01;54.50
61035;BME280;46916;40.564;-7.958;2023-01-29T08:35:35;98164.81;;;6.07;54.82
61035;BME280;46916;40.564;-7.958;2023-01-29T08:37:36;98159.09;;;6.16;54.53
61035;BME280;46916;40.564;-7.958;2023-01-29T08:39:37;98165.31;;;6.29;53.38
61035;BME280;46916;40.564;-7.958;2023-01-29T08:41:37;98141.72;;;6.32;53.58
61035;BME280;46916;40.564;-7.958;2023-01-29T08:43:38;98149.44;;;6.34;53.64
61035;BME280;46916;40.564;-7.958;2023-01-29T08:45:41;98153.38;;;6.41;52.24
61035;BME280;46916;40.564;-7.958;2023-01-29T08:47:48;98153.34;;;6.57;52.70
61035;BME280;46916;40.564;-7.958;2023-01-29T08:49:49;98155.44;;;6.66;52.88
61035;BME280;46916;40.564;-7.958;2023-01-29T08:51:50;98159.09;;;6.78;51.79
61035;BME280;46916;40.564;-7.958;2023-01-29T08:53:51;98151.53;;;6.73;51.82
61035;BME280;46916;40.564;-7.958;2023-01-29T08:55:52;98164.22;;;6.79;51.95
61035;BME280;46916;40.564;-7.958;2023-01-29T08:57:53;98155.13;;;6.86;51.12
61035;BME280;46916;40.564;-7.958;2023-01-29T08:59:54;98159.31;;;6.89;51.08
61035;BME280;46916;40.564;-7.958;2023-01-29T09:01:54;98161.72;;;6.78;51.22
61035;BME280;46916;40.564;-7.958;2023-01-29T09:03:55;98153.56;;;6.68;51.32
61035;BME280;46916;40.564;-7.958;2023-01-29T09:05:56;98150.28;;;6.64;51.73
61035;BME280;46916;40.564;-7.958;2023-01-29T09:07:57;98169.34;;;6.65;51.58
61035;BME280;46916;40.564;-7.958;2023-01-29T09:09:57;98174.41;;;6.68;51.44
61035;BME280;46916;40.564;-7.958;2023-01-29T09:11:58;98172.16;;;6.62;51.79
61035;BME280;46916;40.564;-7.958;2023-01-29T09:13:59;98169.88;;;6.56;52.52
61035;BME280;46916;40.564;-7.958;2023-01-29T09:16:01;98179.13;;;6.61;51.84
61035;BME280;46916;40.564;-7.958;2023-01-29T09:18:03;98186.69;;;6.66;51.66
61035;BME280;46916;40.564;-7.958;2023-01-29T09:20:05;98186.31;;;6.72;51.88
61035;BME280;46916;40.564;-7.958;2023-01-29T09:22:06;98192.63;;;6.68;51.44
61035;BME280;46916;40.564;-7.958;2023-01-29T09:24:06;98182.97;;;6.70;51.54
61035;BME280;46916;40.564;-7.958;2023-01-29T09:26:07;98186.25;;;6.74;51.47
61035;BME280;46916;40.564;-7.958;2023-01-29T09:28:08;98186.72;;;6.80;51.67
61035;BME280;46916;40.564;-7.958;2023-01-29T09:30:09;98183.53;;;6.75;51.86
61035;BME280;46916;40.564;-7.958;2023-01-29T09:32:10;98193.59;;;6.81;52.05
61035;BME280;46916;40.564;-7.958;2023-01-29T09:34:11;98196.34;;;6.94;51.07
61035;BME280;46916;40.564;-7.958;2023-01-29T09:36:12;98201.97;;;7.02;50.91
61035;BME280;46916;40.564;-7.958;2023-01-29T09:38:13;98189.09;;;6.99;51.31
61035;BME280;46916;40.564;-7.958;2023-01-29T09:42:27;98190.63;;;7.17;50.97
61035;BME280;46916;40.564;-7.958;2023-01-29T09:44:46;98185.44;;;7.32;50.20
61035;BME280;46916;40.564;-7.958;2023-01-29T09:46:50;98181.69;;;7.22;50.24
61035;BME280;46916;40.564;-7.958;2023-01-29T09:48:58;98168.31;;;7.28;50.63
61035;BME280;46916;40.564;-7.958;2023-01-29T09:51:05;98186.94;;;7.36;50.03
61035;BME280;46916;40.564;-7.958;2023-01-29T09:53:15;98183.78;;;7.31;50.53
61035;BME280;46916;40.564;-7.958;2023-01-29T09:55:24;98189.94;;;7.44;50.71
61035;BME280;46916;40.564;-7.958;2023-01-29T09:59:45;98191.97;;;7.53;50.06
61035;BME280;46916;40.564;-7.958;2023-01-29T10:01:58;98189.94;;;7.58;50.10
61035;BME280;46916;40.564;-7.958;2023-01-29T10:08:58;98179.06;;;7.52;50.74
61035;BME280;46916;40.564;-7.958;2023-01-29T10:11:06;98190.41;;;7.65;50.46
61035;BME280;46916;40.564;-7.958;2023-01-29T10:13:43;98183.97;;;7.70;49.85
61035;BME280;46916;40.564;-7.958;2023-01-29T10:24:59;98169.81;;;7.75;49.71
61035;BME280;46916;40.564;-7.958;2023-01-29T10:27:07;98172.59;;;7.86;49.05
61035;BME280;46916;40.564;-7.958;2023-01-29T10:29:15;98203.44;;;7.79;48.71
61035;BME280;46916;40.564;-7.958;2023-01-29T10:31:28;98201.31;;;7.72;49.49
61035;BME280;46916;40.564;-7.958;2023-01-29T10:33:44;98184.16;;;7.82;49.12
61035;BME280;46916;40.564;-7.958;2023-01-29T10:35:51;98208.84;;;7.90;48.85
61035;BME280;46916;40.564;-7.958;2023-01-29T10:37:53;98183.16;;;7.84;48.21
61035;BME280;46916;40.564;-7.958;2023-01-29T10:39:54;98193.38;;;7.73;49.19
61035;BME280;46916;40.564;-7.958;2023-01-29T10:42:28;98202.06;;;7.88;49.52
61035;BME280;46916;40.564;-7.958;2023-01-29T10:44:52;98196.22;;;8.11;48.40
61035;BME280;46916;40.564;-7.958;2023-01-29T10:47:21;98212.63;;;8.13;48.31
61035;BME280;46916;40.564;-7.958;2023-01-29T10:50:04;98199.25;;;8.05;48.60
61035;BME280;46916;40.564;-7.958;2023-01-29T10:52:43;98191.00;;;8.11;48.07
61035;BME280;46916;40.564;-7.958;2023-01-29T11:01:10;98191.06;;;8.24;48.28
61035;BME280;46916;40.564;-7.958;2023-01-29T11:03:16;98190.25;;;8.38;46.82
61035;BME280;46916;40.564;-7.958;2023-01-29T11:05:33;98198.34;;;8.33;46.96
61035;BME280;46916;40.564;-7.958;2023-01-29T11:07:35;98189.69;;;8.33;46.89
61035;BME280;46916;40.564;-7.958;2023-01-29T11:09:43;98181.56;;;8.23;46.69
61035;BME280;46916;40.564;-7.958;2023-01-29T11:11:49;98199.94;;;8.22;47.10
61035;BME280;46916;40.564;-7.958;2023-01-29T11:13:56;98201.31;;;8.27;45.84
61035;BME280;46916;40.564;-7.958;2023-01-29T11:15:57;98192.56;;;8.28;46.62
61035;BME280;46916;40.564;-7.958;2023-01-29T11:18:07;98178.53;;;8.16;47.35
61035;BME280;46916;40.564;-7.958;2023-01-29T11:20:26;98179.50;;;8.28;47.36
61035;BME280;46916;40.564;-7.958;2023-01-29T11:22:28;98187.97;;;8.32;47.29
61035;BME280;46916;40.564;-7.958;2023-01-29T11:24:29;98176.16;;;8.40;45.93
61035;BME280;46916;40.564;-7.958;2023-01-29T11:26:33;98177.56;;;8.46;46.37
61035;BME280;46916;40.564;-7.958;2023-01-29T11:28:35;98188.00;;;8.46;47.03
61035;BME280;46916;40.564;-7.958;2023-01-29T11:30:38;98164.44;;;8.60;45.34
61035;BME280;46916;40.564;-7.958;2023-01-29T11:32:39;98160.44;;;8.55;46.34
61035;BME280;46916;40.564;-7.958;2023-01-29T11:37:14;98157.91;;;8.80;44.81
61035;BME280;46916;40.564;-7.958;2023-01-29T11:39:19;98159.03;;;8.76;45.02
61035;BME280;46916;40.564;-7.958;2023-01-29T11:41:20;98146.81;;;8.77;44.50
61035;BME280;46916;40.564;-7.958;2023-01-29T11:43:26;98142.09;;;8.69;44.54
61035;BME280;46916;40.564;-7.958;2023-01-29T11:45:28;98142.84;;;8.71;45.04
61035;BME280;46916;40.564;-7.958;2023-01-29T11:47:35;98134.38;;;8.67;44.73
61035;BME280;46916;40.564;-7.958;2023-01-29T11:49:36;98132.19;;;8.61;45.94
61035;BME280;46916;40.564;-7.958;2023-01-29T11:51:39;98115.72;;;8.74;45.44
61035;BME280;46916;40.564;-7.958;2023-01-29T11:53:57;98117.06;;;8.79;46.24
61035;BME280;46916;40.564;-7.958;2023-01-29T11:56:03;98127.72;;;8.89;45.25
61035;BME280;46916;40.564;-7.958;2023-01-29T11:58:23;98095.22;;;8.93;44.75
61035;BME280;46916;40.564;-7.958;2023-01-29T12:00:28;98091.06;;;9.03;44.99
61035;BME280;46916;40.564;-7.958;2023-01-29T12:02:37;98081.25;;;9.07;44.38
61035;BME280;46916;40.564;-7.958;2023-01-29T12:04:41;98089.09;;;9.07;44.47
61035;BME280;46916;40.564;-7.958;2023-01-29T12:06:43;98078.22;;;9.13;43.48
61035;BME280;46916;40.564;-7.958;2023-01-29T12:08:59;98058.34;;;8.98;43.50
61035;BME280;46916;40.564;-7.958;2023-01-29T12:11:15;98059.09;;;9.00;43.37
61035;BME280;46916;40.564;-7.958;2023-01-29T12:13:28;98055.41;;;8.89;43.60